createdAt,value
2023-02-26T14:57:52.963Z,20.80
2023-02-26T15:00:36.999Z,16.30
2023-02-26T15:16:23.857Z,14.40
2023-02-26T15:19:17.359Z,13.60
2023-02-26T15:22:07.941Z,13.80
2023-02-26T15:27:36.893Z,20.90
2023-02-26T15:30:16.206Z,16.60
2023-02-26T15:32:53.708Z,20.80
2023-02-26T15:43:32.120Z,19.50
2023-02-26T15:46:05.323Z,22.40
2023-02-26T15:48:42.515Z,24.60
2023-02-26T15:51:15.087Z,18.10
2023-02-26T15:53:47.784Z,18.10
2023-02-26T15:56:22.221Z,17.90
2023-02-26T15:58:54.715Z,25.90
2023-02-26T16:01:25.423Z,24.20
2023-02-26T16:03:57.929Z,16.90
2023-02-26T16:06:37.870Z,16.10
2023-02-26T16:09:09.413Z,19.90
2023-02-26T16:11:40.420Z,19.90
2023-02-26T16:14:22.257Z,20.10
2023-02-26T16:16:54.056Z,18.20
2023-02-26T16:19:39.185Z,22.30
2023-02-26T16:22:24.425Z,19.50
2023-02-26T16:25:00.674Z,19.30
2023-02-26T16:27:51.391Z,29.60
2023-02-26T16:30:23.281Z,21.20
2023-02-26T16:32:54.092Z,28.80
2023-02-26T16:35:24.680Z,24.80
2023-02-26T16:37:55.330Z,24.60
2023-02-26T16:40:25.537Z,30.00
2023-02-26T16:43:07.541Z,26.30
2023-02-26T16:45:52.281Z,21.50
2023-02-26T16:49:01.089Z,30.30
2023-02-26T16:51:41.817Z,28.30
2023-02-26T16:57:28.977Z,35.20
2023-02-26T17:00:17.916Z,32.20
2023-02-26T17:02:49.886Z,32.70
2023-02-26T17:08:38.686Z,30.90
2023-02-26T17:14:24.291Z,29.40
2023-02-26T17:16:58.185Z,26.00
2023-02-26T17:19:39.816Z,26.00
2023-02-26T17:22:15.020Z,29.10
2023-02-26T17:24:49.467Z,30.50
2023-02-26T17:27:29.897Z,30.70
2023-02-26T17:30:00.209Z,32.50
2023-02-26T17:32:31.927Z,25.20
2023-02-26T17:35:08.831Z,35.60
2023-02-26T17:40:25.964Z,33.10
2023-02-26T17:42:57.610Z,23.10
2023-02-26T17:45:30.475Z,33.80
2023-02-26T17:48:04.826Z,24.50
2023-02-26T17:50:49.591Z,22.70
2023-02-26T17:53:27.673Z,24.20
2023-02-26T17:55:58.214Z,25.10
2023-02-26T17:58:34.238Z,26.50
2023-02-26T18:01:04.280Z,22.90
2023-02-26T18:03:33.227Z,26.70
2023-02-26T18:06:01.765Z,26.90
2023-02-26T18:08:34.508Z,20.90
2023-02-26T18:11:06.666Z,24.20
2023-02-26T18:13:37.130Z,22.60
2023-02-26T18:16:12.963Z,25.80
2023-02-26T18:18:47.568Z,23.40
2023-02-26T18:21:17.187Z,21.10
2023-02-26T18:23:49.242Z,28.80
2023-02-26T18:26:23.121Z,35.50
2023-02-26T18:28:57.550Z,24.30
2023-02-26T18:31:35.008Z,29.20
2023-02-26T18:34:13.885Z,35.10
2023-02-26T18:36:45.500Z,43.90
2023-02-26T18:39:20.634Z,51.20
2023-02-26T18:41:50.120Z,47.20
2023-02-26T18:44:20.342Z,50.20
2023-02-26T18:46:51.109Z,51.60
2023-02-26T18:49:20.249Z,56.50
2023-02-26T18:51:50.366Z,48.80
2023-02-26T18:54:20.050Z,55.90
2023-02-26T18:56:50.108Z,60.40
2023-02-26T18:59:19.726Z,57.10
2023-02-26T19:01:52.019Z,54.00
2023-02-26T19:04:26.480Z,53.90
2023-02-26T19:06:56.634Z,54.50
2023-02-26T19:09:29.549Z,51.80
2023-02-26T19:11:59.320Z,55.80
2023-02-26T19:14:32.623Z,51.60
2023-02-26T19:17:01.550Z,51.20
2023-02-26T19:22:03.284Z,47.10
2023-02-26T19:24:38.356Z,38.60
2023-02-26T19:29:37.343Z,35.10
2023-02-26T19:32:07.182Z,29.70
2023-02-26T19:34:36.207Z,37.90
2023-02-26T19:37:10.797Z,31.90
2023-02-26T19:39:39.867Z,29.20
2023-02-26T19:42:11.906Z,33.00
2023-02-26T19:44:44.769Z,37.90
2023-02-26T19:47:14.691Z,38.20
2023-02-26T19:49:44.730Z,37.10
2023-02-26T19:52:20.211Z,35.20
2023-02-26T19:54:51.433Z,34.90
2023-02-26T19:57:22.484Z,37.00
2023-02-26T19:59:55.284Z,35.50
2023-02-26T20:02:32.472Z,32.90
2023-02-26T20:05:17.175Z,33.10
2023-02-26T20:07:50.126Z,34.40
2023-02-26T20:10:26.474Z,32.20
2023-02-26T20:13:00.282Z,31.10
2023-02-26T20:15:31.550Z,30.90
2023-02-26T20:18:05.691Z,25.20
2023-02-26T20:20:43.936Z,24.20
2023-02-26T20:23:15.999Z,22.20
2023-02-26T20:25:45.384Z,25.30
2023-02-26T20:28:20.056Z,24.40
2023-02-26T20:30:50.876Z,27.20
2023-02-26T20:33:21.420Z,19.10
2023-02-26T20:35:50.253Z,24.40
2023-02-26T20:38:19.509Z,20.50
2023-02-26T20:40:48.547Z,22.30
2023-02-26T20:43:20.219Z,21.70
2023-02-26T20:45:49.875Z,19.70
2023-02-26T20:48:24.802Z,22.00
2023-02-26T20:51:02.065Z,20.20
2023-02-26T20:53:31.570Z,19.20
2023-02-26T20:56:00.999Z,18.80
2023-02-26T20:58:30.202Z,22.20
2023-02-26T21:00:58.576Z,20.60
2023-02-26T21:03:31.919Z,21.50
2023-02-26T21:06:03.737Z,20.20
2023-02-26T21:11:26.145Z,17.00
2023-02-26T21:13:55.488Z,20.70
2023-02-26T21:16:25.861Z,18.20
2023-02-26T21:18:56.836Z,18.10
2023-02-26T21:21:27.832Z,21.50
2023-02-26T21:23:57.653Z,21.30
2023-02-26T21:26:28.336Z,17.00
2023-02-26T21:28:57.078Z,19.00
2023-02-26T21:31:28.902Z,18.20
2023-02-26T21:34:30.277Z,15.00
2023-02-26T21:36:59.679Z,16.20
2023-02-26T21:39:33.391Z,20.00
2023-02-26T21:42:04.547Z,15.20
2023-02-26T21:44:35.685Z,14.50
2023-02-26T21:47:05.595Z,20.10
2023-02-26T21:52:43.607Z,12.60
2023-02-26T21:55:14.233Z,9.90
2023-02-26T21:57:43.668Z,9.90
2023-02-26T22:00:13.526Z,10.70
2023-02-26T22:02:47.580Z,9.70
2023-02-26T22:05:16.782Z,10.40
2023-02-26T22:07:52.648Z,10.70
2023-02-26T22:10:24.905Z,11.70
2023-02-26T22:12:53.949Z,11.40
2023-02-26T22:15:31.777Z,8.90
2023-02-26T22:18:06.821Z,8.80
2023-02-26T22:20:39.434Z,9.10
2023-02-26T22:23:32.141Z,8.60
2023-02-26T22:26:07.221Z,6.50
2023-02-26T22:28:42.180Z,6.40
2023-02-26T22:31:17.128Z,7.70
2023-02-26T22:33:47.770Z,9.10
2023-02-26T22:36:17.913Z,9.80
2023-02-26T22:39:05.258Z,9.50
2023-02-26T22:41:38.882Z,7.30
2023-02-26T22:44:07.994Z,8.60
2023-02-26T22:46:39.544Z,9.30
2023-02-26T22:49:09.812Z,6.90
2023-02-26T22:51:44.217Z,9.10
2023-02-26T22:54:13.618Z,7.20
2023-02-26T22:56:45.591Z,8.20
2023-02-26T22:59:16.868Z,7.50
2023-02-26T23:01:46.829Z,7.10
2023-02-26T23:04:17.602Z,6.80
2023-02-26T23:06:50.071Z,10.20
2023-02-26T23:09:19.074Z,7.80
2023-02-26T23:11:49.136Z,10.60
2023-02-26T23:14:24.472Z,7.00
2023-02-26T23:16:53.161Z,7.90
2023-02-26T23:19:22.935Z,7.10
2023-02-26T23:21:51.858Z,10.60
2023-02-26T23:24:23.847Z,8.70
2023-02-26T23:27:03.438Z,8.50
2023-02-26T23:29:35.788Z,9.60
2023-02-26T23:32:06.692Z,7.20
2023-02-26T23:34:40.412Z,7.90
2023-02-26T23:37:10.360Z,7.60
2023-02-26T23:39:42.525Z,7.10
2023-02-26T23:42:10.879Z,9.30
2023-02-26T23:44:39.207Z,9.10
2023-02-26T23:47:07.793Z,11.50
2023-02-26T23:52:08.892Z,8.50
2023-02-26T23:54:39.847Z,10.70
2023-02-26T23:57:08.525Z,9.20
2023-02-26T23:59:37.207Z,8.90
